createdAt,value
2023-01-18T00:01:07.846Z,6.30
2023-01-18T00:03:36.819Z,6.20
2023-01-18T00:06:05.640Z,6.10
2023-01-18T00:08:34.310Z,6.10
2023-01-18T00:11:12.893Z,6.10
2023-01-18T00:13:40.263Z,6.20
2023-01-18T00:16:12.274Z,6.20
2023-01-18T00:18:39.566Z,6.20
2023-01-18T00:21:09.050Z,6.20
2023-01-18T00:23:36.669Z,6.30
2023-01-18T00:26:06.330Z,6.30
2023-01-18T00:28:33.846Z,6.20
2023-01-18T00:31:00.783Z,6.20
2023-01-18T00:33:27.630Z,6.20
2023-01-18T00:35:58.758Z,6.20
2023-01-18T00:38:26.550Z,6.20
2023-01-18T00:40:53.546Z,6.20
2023-01-18T00:43:38.947Z,6.20
2023-01-18T00:46:11.190Z,6.20
2023-01-18T00:48:39.761Z,6.10
2023-01-18T00:51:08.241Z,6.10
2023-01-18T00:53:35.145Z,6.10
2023-01-18T00:56:01.946Z,6.10
2023-01-18T00:58:28.986Z,6.10
2023-01-18T01:00:55.871Z,6.00
2023-01-18T01:03:22.878Z,6.00
2023-01-18T01:06:08.349Z,6.00
2023-01-18T01:08:35.250Z,5.90
2023-01-18T01:11:10.925Z,5.80
2023-01-18T01:13:57.273Z,5.80
2023-01-18T01:16:43.043Z,5.70
2023-01-18T01:19:28.678Z,5.70
2023-01-18T01:22:14.193Z,5.70
2023-01-18T01:24:59.628Z,5.70
2023-01-18T01:27:26.823Z,5.70
2023-01-18T01:29:54.386Z,5.70
2023-01-18T01:32:21.173Z,5.70
2023-01-18T01:34:48.356Z,5.80
2023-01-18T01:37:15.164Z,5.80
2023-01-18T01:39:41.910Z,5.80
2023-01-18T01:42:12.007Z,5.80
2023-01-18T01:44:43.893Z,5.80
2023-01-18T01:47:20.035Z,5.80
2023-01-18T01:49:50.981Z,5.80
2023-01-18T01:52:24.877Z,5.80
2023-01-18T01:55:02.399Z,5.90
2023-01-18T01:57:34.249Z,6.00
2023-01-18T02:00:03.316Z,6.00
2023-01-18T02:02:32.888Z,5.90
2023-01-18T02:05:03.065Z,5.90
2023-01-18T02:07:30.073Z,6.00
2023-01-18T02:09:58.654Z,5.90
2023-01-18T02:12:26.320Z,5.80
2023-01-18T02:14:53.549Z,5.80
2023-01-18T02:17:28.430Z,5.80
2023-01-18T02:20:19.572Z,5.90
2023-01-18T02:22:55.296Z,5.80
2023-01-18T02:25:53.744Z,5.90
2023-01-18T02:28:35.704Z,5.90
2023-01-18T02:31:08.798Z,5.80
2023-01-18T02:34:13.511Z,5.80
2023-01-18T02:37:05.818Z,5.80
2023-01-18T02:39:41.321Z,5.80
2023-01-18T02:42:55.529Z,5.80
2023-01-18T02:45:46.949Z,5.90
2023-01-18T02:48:15.105Z,5.90
2023-01-18T02:50:42.133Z,5.90
2023-01-18T02:53:13.721Z,5.90
2023-01-18T02:56:06.937Z,5.90
2023-01-18T02:58:39.048Z,5.90
2023-01-18T03:01:19.516Z,5.90
2023-01-18T03:03:50.390Z,5.90
2023-01-18T03:06:18.635Z,5.90
2023-01-18T03:08:52.276Z,5.90
2023-01-18T03:11:26.897Z,5.90
2023-01-18T03:14:17.841Z,5.90
2023-01-18T03:17:06.422Z,5.90
2023-01-18T03:20:07.844Z,5.90
2023-01-18T03:23:28.982Z,5.90
2023-01-18T03:25:57.621Z,5.90
2023-01-18T03:28:49.628Z,5.80
2023-01-18T03:32:07.147Z,5.90
2023-01-18T03:34:44.783Z,5.90
2023-01-18T03:37:16.726Z,5.90
2023-01-18T03:39:47.798Z,6.00
2023-01-18T03:42:31.400Z,6.00
2023-01-18T03:45:27.624Z,6.00
2023-01-18T03:47:54.761Z,6.00
2023-01-18T03:50:30.237Z,6.00
2023-01-18T03:53:00.372Z,6.00
2023-01-18T03:55:40.641Z,6.00
2023-01-18T03:58:12.439Z,6.00
2023-01-18T04:00:40.072Z,6.00
2023-01-18T04:03:07.237Z,6.00
2023-01-18T04:05:35.373Z,6.00
2023-01-18T04:08:02.287Z,6.00
2023-01-18T04:10:29.228Z,6.00
2023-01-18T04:12:56.481Z,6.00
2023-01-18T04:15:23.858Z,5.90
2023-01-18T04:17:53.321Z,5.90
2023-01-18T04:20:20.203Z,6.00
2023-01-18T04:22:52.331Z,6.00
2023-01-18T04:25:19.793Z,6.00
2023-01-18T04:27:46.702Z,6.00
2023-01-18T04:30:13.700Z,6.00
2023-01-18T04:32:42.756Z,6.10
2023-01-18T04:35:10.102Z,6.10
2023-01-18T04:37:38.231Z,6.10
2023-01-18T04:40:06.589Z,6.10
2023-01-18T04:42:33.619Z,6.10
2023-01-18T04:45:00.731Z,6.10
2023-01-18T04:47:30.967Z,6.20
2023-01-18T04:49:57.952Z,6.10
2023-01-18T04:52:26.782Z,6.10
2023-01-18T04:54:53.759Z,6.10
2023-01-18T04:57:20.931Z,6.10
2023-01-18T04:59:47.888Z,6.10
2023-01-18T05:02:15.523Z,6.10
2023-01-18T05:04:43.727Z,6.10
2023-01-18T05:07:11.313Z,6.10
2023-01-18T05:09:38.140Z,6.10
2023-01-18T05:12:05.105Z,6.10
2023-01-18T05:14:31.983Z,6.10
2023-01-18T05:16:58.734Z,6.10
2023-01-18T05:19:30.074Z,6.10
2023-01-18T05:21:57.091Z,6.10
2023-01-18T05:24:23.967Z,6.20
2023-01-18T05:26:50.966Z,6.20
2023-01-18T05:29:18.169Z,6.20
2023-01-18T05:31:45.071Z,6.10
2023-01-18T05:34:11.949Z,6.20
2023-01-18T05:36:38.794Z,6.20
2023-01-18T05:39:06.512Z,6.20
2023-01-18T05:41:33.303Z,6.10
2023-01-18T05:44:00.109Z,6.10
2023-01-18T05:46:26.941Z,6.10
2023-01-18T05:48:57.636Z,6.10
2023-01-18T05:51:25.048Z,6.00
2023-01-18T05:53:51.889Z,5.90
2023-01-18T05:56:18.628Z,5.90
2023-01-18T05:58:45.455Z,5.90
2023-01-18T06:01:12.344Z,5.90
2023-01-18T06:03:39.994Z,5.90
2023-01-18T06:06:07.056Z,5.80
2023-01-18T06:08:34.002Z,5.80
2023-01-18T06:11:01.334Z,5.80
2023-01-18T06:13:30.174Z,5.70
2023-01-18T06:15:59.334Z,5.70
2023-01-18T06:18:28.171Z,5.80
2023-01-18T06:21:01.264Z,5.80
2023-01-18T06:23:29.456Z,5.80
2023-01-18T06:25:56.587Z,5.80
2023-01-18T06:28:23.718Z,5.70
2023-01-18T06:30:55.410Z,5.70
2023-01-18T06:33:24.117Z,5.70
2023-01-18T06:35:51.062Z,5.60
2023-01-18T06:38:18.065Z,5.70
2023-01-18T06:40:44.961Z,5.70
2023-01-18T06:43:14.283Z,5.70
2023-01-18T06:45:41.432Z,5.80
2023-01-18T06:48:08.423Z,5.80
2023-01-18T06:50:35.389Z,5.80
2023-01-18T06:53:02.257Z,5.80
2023-01-18T06:55:29.043Z,5.70
2023-01-18T06:57:57.161Z,5.70
2023-01-18T07:00:24.490Z,5.70
2023-01-18T07:02:52.975Z,5.60
2023-01-18T07:05:20.231Z,5.60
2023-01-18T07:07:47.213Z,5.70
2023-01-18T07:10:16.345Z,5.80
2023-01-18T07:12:47.449Z,5.80
2023-01-18T07:15:21.595Z,5.90
2023-01-18T07:17:50.451Z,5.90
2023-01-18T07:20:17.921Z,5.90
2023-01-18T07:22:44.708Z,5.90
2023-01-18T07:25:18.842Z,5.80
2023-01-18T07:27:46.322Z,5.80
2023-01-18T07:30:13.552Z,5.90
2023-01-18T07:32:44.753Z,5.90
2023-01-18T07:35:11.688Z,6.00
2023-01-18T07:37:38.748Z,5.90
2023-01-18T07:40:06.162Z,5.90
2023-01-18T07:42:32.893Z,5.90
2023-01-18T07:44:59.645Z,5.90
2023-01-18T07:47:26.421Z,5.90
2023-01-18T07:49:53.197Z,5.80
2023-01-18T07:52:19.953Z,5.90
2023-01-18T07:54:46.741Z,5.90
2023-01-18T07:57:13.588Z,5.90
2023-01-18T07:59:40.445Z,6.00
2023-01-18T08:02:08.845Z,6.00
2023-01-18T08:04:35.803Z,6.10
2023-01-18T08:07:02.662Z,6.20
2023-01-18T08:09:29.500Z,6.10
2023-01-18T08:11:56.359Z,6.20
2023-01-18T08:14:23.357Z,6.10
2023-01-18T08:16:50.173Z,6.20
2023-01-18T08:19:17.450Z,6.20
2023-01-18T08:21:45.290Z,6.20
2023-01-18T08:24:13.048Z,6.30
2023-01-18T08:26:40.085Z,6.20
2023-01-18T08:29:06.954Z,6.20
2023-01-18T08:31:33.814Z,6.20
2023-01-18T08:34:02.069Z,6.10
2023-01-18T08:36:28.852Z,6.10
2023-01-18T08:38:59.605Z,6.10
2023-01-18T08:41:31.183Z,6.10
2023-01-18T08:43:59.469Z,6.20
2023-01-18T08:46:26.419Z,6.20
2023-01-18T08:48:56.001Z,6.30
2023-01-18T08:51:25.961Z,6.20
2023-01-18T08:53:54.390Z,6.30
2023-01-18T08:56:21.532Z,6.30
2023-01-18T08:58:48.610Z,6.30
2023-01-18T09:01:15.644Z,6.20
2023-01-18T09:03:42.558Z,6.30
2023-01-18T09:06:12.560Z,6.20
2023-01-18T09:08:39.706Z,6.20
2023-01-18T09:11:08.279Z,6.10
2023-01-18T09:13:35.253Z,6.10
2023-01-18T09:16:04.417Z,6.20
2023-01-18T09:18:31.505Z,6.20
2023-01-18T09:20:58.636Z,6.20
2023-01-18T09:23:25.953Z,6.20
2023-01-18T09:26:17.211Z,6.20
2023-01-18T09:28:47.669Z,6.20
2023-01-18T09:31:14.862Z,6.30
2023-01-18T09:33:51.206Z,6.20
2023-01-18T09:36:21.630Z,6.20
2023-01-18T09:38:48.617Z,6.30
2023-01-18T09:41:27.311Z,6.30
2023-01-18T09:43:58.457Z,6.30
2023-01-18T09:46:25.644Z,6.30
2023-01-18T09:48:59.389Z,6.20
2023-01-18T09:51:32.252Z,6.20
2023-01-18T09:54:29.350Z,6.10
2023-01-18T09:57:20.982Z,6.10
2023-01-18T09:59:57.890Z,6.10
2023-01-18T10:02:39.216Z,6.10
2023-01-18T10:05:22.046Z,6.10
2023-01-18T10:08:04.947Z,6.20
2023-01-18T10:10:39.425Z,6.20
2023-01-18T10:13:35.290Z,6.10
2023-01-18T10:16:03.240Z,6.10
2023-01-18T10:18:30.807Z,6.20
2023-01-18T10:21:01.498Z,6.20
2023-01-18T10:23:34.736Z,6.10
2023-01-18T10:26:21.975Z,6.10
2023-01-18T10:28:53.258Z,6.20
2023-01-18T10:31:44.452Z,6.20
2023-01-18T10:34:21.138Z,6.20
2023-01-18T10:36:58.921Z,6.20
2023-01-18T10:39:36.481Z,6.10
2023-01-18T10:42:07.018Z,6.10
2023-01-18T10:44:33.802Z,6.20
2023-01-18T10:47:01.526Z,6.30
2023-01-18T10:49:37.166Z,6.30
2023-01-18T10:52:29.685Z,6.30
2023-01-18T10:55:02.695Z,6.30
2023-01-18T10:57:43.432Z,6.40
2023-01-18T11:00:30.746Z,6.30
2023-01-18T11:02:59.382Z,6.30
2023-01-18T11:05:45.574Z,6.30
2023-01-18T11:08:31.642Z,6.30
2023-01-18T11:11:49.297Z,6.40
2023-01-18T11:14:29.339Z,6.40
2023-01-18T11:16:58.895Z,6.40
2023-01-18T11:19:26.143Z,6.40
2023-01-18T11:21:53.968Z,6.40
2023-01-18T11:24:28.310Z,6.40
2023-01-18T11:27:07.434Z,6.50
2023-01-18T11:29:43.255Z,6.50
2023-01-18T11:32:24.067Z,6.50
2023-01-18T11:34:56.047Z,6.50
2023-01-18T11:37:28.808Z,6.50
2023-01-18T11:39:55.884Z,6.60
2023-01-18T11:42:32.106Z,6.60
2023-01-18T11:45:16.884Z,6.60
2023-01-18T11:47:50.267Z,6.60
2023-01-18T11:50:23.085Z,6.60
2023-01-18T11:52:53.709Z,6.70
2023-01-18T11:55:56.466Z,6.70
2023-01-18T11:58:29.368Z,6.70
2023-01-18T12:01:21.633Z,6.70
2023-01-18T12:04:03.733Z,6.60
2023-01-18T12:06:41.794Z,6.60
2023-01-18T12:09:11.895Z,6.50
2023-01-18T12:12:19.411Z,6.60
2023-01-18T12:15:08.060Z,6.60
2023-01-18T12:18:22.930Z,6.60
2023-01-18T12:21:09.241Z,6.70
2023-01-18T12:23:47.577Z,6.70
2023-01-18T12:26:35.483Z,6.70
2023-01-18T12:29:10.774Z,6.70
2023-01-18T12:31:49.349Z,6.80
2023-01-18T12:34:22.152Z,6.80
2023-01-18T12:37:01.767Z,6.80
2023-01-18T12:39:34.259Z,6.80
2023-01-18T12:42:07.498Z,6.80
2023-01-18T12:45:09.992Z,6.90
2023-01-18T12:47:42.497Z,6.90
2023-01-18T12:50:23.278Z,6.90
2023-01-18T12:52:54.975Z,7.00
2023-01-18T12:55:26.300Z,7.00
2023-01-18T12:57:58.961Z,7.00
2023-01-18T13:00:39.496Z,7.00
2023-01-18T13:03:16.358Z,7.10
2023-01-18T13:05:53.143Z,7.00
2023-01-18T13:08:53.702Z,7.10
2023-01-18T13:11:42.237Z,7.00
2023-01-18T13:14:44.012Z,7.00
2023-01-18T13:17:28.574Z,7.00
2023-01-18T13:20:02.259Z,7.00
2023-01-18T13:22:41.214Z,7.00
2023-01-18T13:25:32.313Z,7.10
2023-01-18T13:28:20.273Z,7.10
2023-01-18T13:30:53.208Z,7.00
2023-01-18T13:33:24.108Z,7.00
2023-01-18T13:36:11.074Z,6.90
2023-01-18T13:38:58.198Z,7.00
2023-01-18T13:41:27.218Z,7.00
2023-01-18T13:44:30.261Z,7.00
2023-01-18T13:46:59.695Z,7.00
2023-01-18T13:49:38.503Z,7.00
2023-01-18T13:52:33.645Z,7.00
2023-01-18T13:55:05.422Z,6.90
2023-01-18T13:57:34.264Z,6.90
2023-01-18T14:00:02.440Z,6.90
2023-01-18T14:02:34.222Z,6.90
2023-01-18T14:05:06.444Z,6.90
2023-01-18T14:07:42.249Z,6.80
2023-01-18T14:10:25.433Z,6.80
2023-01-18T14:12:55.080Z,6.80
2023-01-18T14:15:41.876Z,6.80
2023-01-18T14:18:29.891Z,6.80
2023-01-18T14:21:38.341Z,6.80
2023-01-18T14:24:14.537Z,6.70
2023-01-18T14:26:43.204Z,6.70
2023-01-18T14:29:18.736Z,6.70
2023-01-18T14:31:50.368Z,6.70
2023-01-18T14:34:30.356Z,6.70
2023-01-18T14:37:00.458Z,6.70
2023-01-18T14:39:30.101Z,6.60
2023-01-18T14:42:04.117Z,6.60
2023-01-18T14:44:48.626Z,6.50
2023-01-18T14:47:24.757Z,6.50
2023-01-18T14:49:53.395Z,6.50
2023-01-18T14:52:21.852Z,6.50
2023-01-18T14:54:55.690Z,6.60
2023-01-18T14:57:23.883Z,6.50
2023-01-18T14:59:53.220Z,6.50
2023-01-18T15:02:26.008Z,6.50
2023-01-18T15:05:16.989Z,6.50
2023-01-18T15:07:50.171Z,6.50
2023-01-18T15:10:19.114Z,6.60
2023-01-18T15:12:56.656Z,6.60
2023-01-18T15:15:32.032Z,6.60
2023-01-18T15:18:10.594Z,6.60
2023-01-18T15:20:51.750Z,6.60
2023-01-18T15:23:18.603Z,6.50
2023-01-18T15:25:48.830Z,6.50
2023-01-18T15:28:23.594Z,6.50
2023-01-18T15:30:53.536Z,6.50
2023-01-18T15:33:21.853Z,6.50
2023-01-18T15:35:53.213Z,6.50
2023-01-18T15:38:20.676Z,6.50
2023-01-18T15:41:05.084Z,6.50
2023-01-18T15:43:51.088Z,6.50
2023-01-18T15:46:18.518Z,6.50
2023-01-18T15:48:54.657Z,6.40
2023-01-18T15:51:22.981Z,6.40
2023-01-18T15:53:56.157Z,6.30
2023-01-18T15:56:26.752Z,6.30
2023-01-18T15:58:56.788Z,6.30
2023-01-18T16:01:28.691Z,6.30
2023-01-18T16:04:04.036Z,6.30
2023-01-18T16:06:33.872Z,6.30
2023-01-18T16:09:12.150Z,6.20
2023-01-18T16:11:53.086Z,6.20
2023-01-18T16:14:28.857Z,6.20
2023-01-18T16:17:07.738Z,6.20
2023-01-18T16:19:40.428Z,6.20
2023-01-18T16:22:16.773Z,6.30
2023-01-18T16:24:50.978Z,6.30
2023-01-18T16:27:23.100Z,6.30
2023-01-18T16:29:55.023Z,6.20
2023-01-18T16:32:21.800Z,6.30
2023-01-18T16:34:48.937Z,6.30
2023-01-18T16:37:17.211Z,6.30
2023-01-18T16:39:44.400Z,6.30
2023-01-18T16:42:12.534Z,6.30
2023-01-18T16:44:42.659Z,6.20
2023-01-18T16:47:14.943Z,6.20
2023-01-18T16:49:44.127Z,6.20
2023-01-18T16:52:13.319Z,6.30
2023-01-18T16:54:44.944Z,6.30
2023-01-18T16:57:20.313Z,6.30
2023-01-18T16:59:47.285Z,6.40
2023-01-18T17:02:14.759Z,6.40
2023-01-18T17:04:41.790Z,6.50
2023-01-18T17:07:11.736Z,6.40
2023-01-18T17:09:47.868Z,6.40
2023-01-18T17:12:15.920Z,6.40
2023-01-18T17:14:43.306Z,6.50
2023-01-18T17:17:10.750Z,6.50
2023-01-18T17:19:43.163Z,6.40
2023-01-18T17:22:10.339Z,6.40
2023-01-18T17:24:37.258Z,6.40
2023-01-18T17:27:04.121Z,6.40
2023-01-18T17:29:30.885Z,6.40
2023-01-18T17:31:58.105Z,6.40
2023-01-18T17:34:28.437Z,6.40
2023-01-18T17:36:56.285Z,6.40
2023-01-18T17:39:28.103Z,6.30
2023-01-18T17:42:04.156Z,6.40
2023-01-18T17:44:36.748Z,6.30
2023-01-18T17:47:04.069Z,6.20
2023-01-18T17:49:30.905Z,6.30
2023-01-18T17:51:57.704Z,6.30
2023-01-18T17:54:24.485Z,6.40
2023-01-18T17:56:51.443Z,6.40
2023-01-18T17:59:18.282Z,6.30
2023-01-18T18:01:45.102Z,6.30
2023-01-18T18:04:11.957Z,6.30
2023-01-18T18:06:46.081Z,6.30
2023-01-18T18:09:16.403Z,6.30
2023-01-18T18:11:43.734Z,6.30
2023-01-18T18:14:10.490Z,6.30
2023-01-18T18:16:43.166Z,6.20
2023-01-18T18:19:14.484Z,6.30
2023-01-18T18:21:42.973Z,6.30
2023-01-18T18:24:10.146Z,6.30
2023-01-18T18:26:37.092Z,6.30
2023-01-18T18:29:04.418Z,6.20
2023-01-18T18:31:31.308Z,6.30
2023-01-18T18:33:58.210Z,6.30
2023-01-18T18:36:27.326Z,6.40
2023-01-18T18:38:54.356Z,6.30
2023-01-18T18:41:21.229Z,6.40
2023-01-18T18:43:48.121Z,6.30
2023-01-18T18:46:15.065Z,6.30
2023-01-18T18:48:42.653Z,6.40
2023-01-18T18:51:09.936Z,6.40
2023-01-18T18:53:39.597Z,6.40
2023-01-18T18:56:10.186Z,6.40
2023-01-18T18:58:37.926Z,6.20
2023-01-18T19:01:05.617Z,6.20
2023-01-18T19:03:33.116Z,6.20
2023-01-18T19:05:59.904Z,6.30
2023-01-18T19:08:26.639Z,6.40
2023-01-18T19:10:54.574Z,6.40
2023-01-18T19:13:21.349Z,6.30
2023-01-18T19:15:49.387Z,6.30
2023-01-18T19:18:16.167Z,6.30
2023-01-18T19:20:43.230Z,6.20
2023-01-18T19:23:11.199Z,6.30
2023-01-18T19:25:39.160Z,6.20
2023-01-18T19:28:05.961Z,6.30
2023-01-18T19:30:33.387Z,6.40
2023-01-18T19:33:00.808Z,6.40
2023-01-18T19:35:28.059Z,6.40
2023-01-18T19:37:55.337Z,6.30
2023-01-18T19:40:22.185Z,6.20
2023-01-18T19:42:55.991Z,6.30
2023-01-18T19:45:28.265Z,6.30
2023-01-18T19:47:57.583Z,6.30
2023-01-18T19:50:25.419Z,6.30
2023-01-18T19:52:52.406Z,6.20
2023-01-18T19:55:20.136Z,6.20
2023-01-18T19:57:47.159Z,6.30
2023-01-18T20:00:16.628Z,6.30
2023-01-18T20:02:43.637Z,6.30
2023-01-18T20:05:10.744Z,6.20
2023-01-18T20:07:40.804Z,6.30
2023-01-18T20:10:08.362Z,6.30
2023-01-18T20:12:35.176Z,6.30
2023-01-18T20:15:02.017Z,6.20
2023-01-18T20:17:28.826Z,6.20
2023-01-18T20:19:55.589Z,6.20
2023-01-18T20:22:23.118Z,6.20
2023-01-18T20:24:50.052Z,6.30
2023-01-18T20:27:17.350Z,6.20
2023-01-18T20:29:44.849Z,6.20
2023-01-18T20:32:17.159Z,6.20
2023-01-18T20:34:46.794Z,6.20
2023-01-18T20:37:15.062Z,6.30
2023-01-18T20:39:42.044Z,6.30
2023-01-18T20:42:09.066Z,6.40
2023-01-18T20:44:36.071Z,6.40
2023-01-18T20:47:02.885Z,6.40
2023-01-18T20:49:37.595Z,6.40
2023-01-18T20:52:05.961Z,6.40
2023-01-18T20:54:34.720Z,6.40
2023-01-18T20:57:02.397Z,6.40
2023-01-18T20:59:29.272Z,6.40
2023-01-18T21:01:56.437Z,6.30
2023-01-18T21:04:23.401Z,6.40
2023-01-18T21:06:50.177Z,6.40
2023-01-18T21:09:17.306Z,6.40
2023-01-18T21:11:44.179Z,6.40
2023-01-18T21:14:11.751Z,6.20
2023-01-18T21:16:38.529Z,6.20
2023-01-18T21:19:05.328Z,6.30
2023-01-18T21:21:32.181Z,6.30
2023-01-18T21:23:59.814Z,6.40
2023-01-18T21:26:26.983Z,6.40
2023-01-18T21:28:54.535Z,6.40
2023-01-18T21:31:21.890Z,6.50
2023-01-18T21:33:49.358Z,6.50
2023-01-18T21:36:17.899Z,6.50
2023-01-18T21:38:44.793Z,6.50
2023-01-18T21:41:30.571Z,6.40
2023-01-18T21:44:16.136Z,6.40
2023-01-18T21:46:47.568Z,6.40
2023-01-18T21:49:43.331Z,6.50
2023-01-18T21:52:38.270Z,6.50
2023-01-18T21:55:05.577Z,6.50
2023-01-18T21:57:32.377Z,6.50
2023-01-18T21:59:59.154Z,6.50
2023-01-18T22:02:26.163Z,6.40
2023-01-18T22:04:59.380Z,6.40
2023-01-18T22:07:30.383Z,6.50
2023-01-18T22:10:05.110Z,6.40
2023-01-18T22:12:35.302Z,6.40
2023-01-18T22:15:04.388Z,6.40
2023-01-18T22:17:31.397Z,6.50
2023-01-18T22:19:58.273Z,6.50
2023-01-18T22:22:25.051Z,6.50
2023-01-18T22:24:51.880Z,6.50
2023-01-18T22:27:18.957Z,6.50
2023-01-18T22:29:45.724Z,6.50
2023-01-18T22:32:12.519Z,6.40
2023-01-18T22:34:39.308Z,6.40
2023-01-18T22:37:06.062Z,6.50
2023-01-18T22:39:32.995Z,6.50
2023-01-18T22:41:59.731Z,6.50
2023-01-18T22:44:26.476Z,6.50
2023-01-18T22:46:53.293Z,6.60
2023-01-18T22:49:20.033Z,6.60
2023-01-18T22:51:46.797Z,6.60
2023-01-18T22:54:13.591Z,6.60
2023-01-18T22:56:40.397Z,6.60
2023-01-18T22:59:07.836Z,6.60
2023-01-18T23:01:34.666Z,6.60
2023-01-18T23:04:03.873Z,6.50
2023-01-18T23:06:42.453Z,6.60
2023-01-18T23:09:10.075Z,6.60
2023-01-18T23:11:37.018Z,6.70
2023-01-18T23:14:22.639Z,6.60
2023-01-18T23:17:08.143Z,6.60
2023-01-18T23:19:35.491Z,6.60
2023-01-18T23:22:07.151Z,6.60
2023-01-18T23:24:36.063Z,6.60
2023-01-18T23:27:04.519Z,6.60
2023-01-18T23:29:31.492Z,6.60
2023-01-18T23:31:58.519Z,6.60
2023-01-18T23:34:25.740Z,6.60
2023-01-18T23:36:52.920Z,6.50
2023-01-18T23:39:38.063Z,6.60
2023-01-18T23:42:23.642Z,6.60
2023-01-18T23:45:09.241Z,6.60
2023-01-18T23:47:55.013Z,6.60
2023-01-18T23:50:40.681Z,6.60
2023-01-18T23:53:31.021Z,6.60
2023-01-18T23:55:58.109Z,6.60
2023-01-18T23:58:25.316Z,6.60
